• Join FlightAware (Why Join?)
  • Login
  • US Flag 
01:32PM EDT


 

Airport Tracker/Info


-or-


 

Live Flight TrackerFlight Track Log ✈ GJS3627 ✈ 23-Apr-2013 ✈ KORD - KMCI

Flight Track Log - Related Links

Times and Time Zones

All times are in EDT time to prevent confusion due to time zone crossing. See the GJS3627 flight status page for this flight to view local times or setup timezone preferences in your user account.

Time Position Orientation Groundspeed Altitude Reporting Facility
EDT Latitude Longitude Course Direction KTS MPH feet Rate Location/Type
11:16AM 41.9500 -87.9833 254° West 177 204 2,800  Level Chicago TRACON
11:17AM 41.9333 -88.0500 251° West 234 269 4,600 2,280 Climbing Chicago TRACON
11:18AM 41.9139 -88.1447 255° West 255 293 7,600 2,460 Climbing Chicago Center
11:19AM 41.8777 -88.3307 242° Southwest  Level FlightAware Approximate
11:19AM 41.9150 -88.2431 271° West 267 307 10,000  Level Chicago Center
11:20AM 41.8433 -88.4336 255° West  Level FlightAware Approximate
11:20AM 41.9042 -88.3544 263° West 301 346 12,000  Level Chicago Center
11:21AM 41.8203 -88.5427 254° West  Level FlightAware Approximate
11:21AM 41.8708 -88.4856 251° West 311 358 14,400  Level Chicago Center
11:22AM 41.7932 -88.6649 254° West  Level FlightAware Approximate
11:22AM 41.8419 -88.5989 251° West 319 367 16,500  Level Chicago Center
11:24AM 41.8133 -88.7153 252° West 329 379 18,400 1,860 Climbing Chicago Center
11:25AM 41.7844 -88.8311 252° West 332 382 20,400 1,800 Climbing Chicago Center
11:26AM 41.7556 -88.9475 252° West 333 383 22,200 1,800 Climbing Chicago Center
11:27AM 41.7222 -89.0872 252° West 331 381 24,100 1,320 Climbing Chicago Center
11:28AM 41.6922 -89.2061 251° West 338 389 25,000 900 Climbing Chicago Center
11:29AM 41.6608 -89.3300 251° West 349 402 26,000 960 Climbing Chicago Center
11:30AM 41.6289 -89.4558 251° West 358 412 27,000 1,020 Climbing Chicago Center
11:31AM 41.5950 -89.5911 252° West 364 419 28,100 1,020 Climbing Chicago Center
11:32AM 41.5628 -89.7186 251° West 364 419 29,100 960 Climbing Chicago Center
11:33AM 41.5308 -89.8472 252° West 365 420 30,200 1,080 Climbing Chicago Center
11:34AM 41.4778 -89.9600 238° Southwest 363 418 31,400 1,260 Climbing Chicago Center
11:35AM 41.4139 -90.0914 237° Southwest 355 409 32,900 1,260 Climbing Chicago Center
11:36AM 41.3606 -90.1997 237° Southwest 352 405 34,000 480 Climbing Chicago Center
11:37AM 41.3081 -90.3086 237° Southwest 351 404 34,000  Level Chicago Center
11:38AM 41.2508 -90.4236 237° Southwest 373 429 34,000  Level Chicago Center
11:39AM 41.1936 -90.5389 237° Southwest 374 430 34,000 240 Level Chicago Center
11:40AM 41.1369 -90.6517 236° Southwest 370 426 34,500 720 Climbing Chicago Center
11:41AM 41.0817 -90.7642 237° Southwest 365 420 35,500 720 Climbing Chicago Center
11:42AM 41.0153 -90.8947 236° Southwest 358 412 36,000 240 Climbing Chicago Center
11:43AM 40.9592 -91.0044 236° Southwest 360 414 36,000  Level Chicago Center
11:44AM 40.9047 -91.1119 236° Southwest 354 407 36,000  Level Chicago Center
11:45AM 40.8514 -91.2192 237° Southwest 351 404 36,000  Level Chicago Center
11:46AM 40.7906 -91.3375 236° Southwest 354 407 36,000  Level Chicago Center
11:47AM 40.7369 -91.4428 236° Southwest 350 403 36,000  Level Chicago Center
11:48AM 40.6822 -91.5478 236° Southwest 350 403 36,000  Level Chicago Center
11:49AM 40.6275 -91.6522 235° Southwest 350 403 36,000  Level Chicago Center
11:50AM 40.5856 -91.7361 237° Southwest 347 399 36,000  Level Kansas City Center
11:51AM 40.5303 -91.8406 235° Southwest 348 400 36,000  Level Kansas City Center
11:52AM 40.4756 -91.9453 236° Southwest 349 402 36,000  Level Kansas City Center
11:53AM 40.4217 -92.0492 236° Southwest 347 399 36,000  Level Kansas City Center
11:54AM 40.3561 -92.1744 236° Southwest 348 400 36,000  Level Kansas City Center
11:55AM 40.3006 -92.2803 235° Southwest 351 404 36,000  Level Kansas City Center
11:56AM 40.2481 -92.3789 235° Southwest 350 403 36,000  Level Kansas City Center
11:57AM 40.1858 -92.4978 236° Southwest 353 406 36,000  Level Kansas City Center
11:58AM 40.1331 -92.5994 236° Southwest 352 405 36,000 -240 Level Kansas City Center
11:59AM 40.0828 -92.7272 243° Southwest 354 407 35,600 -780 Descending Kansas City Center
12:00PM 40.0422 -92.8331 243° Southwest 360 414 34,500 -1,500 Descending Kansas City Center
12:01PM 39.9950 -92.9517 243° Southwest 367 422 32,600 -1,920 Descending Kansas City Center
12:02PM 39.9494 -93.0689 243° Southwest 366 421 30,700 -2,100 Descending Kansas City Center
12:03PM 39.8917 -93.2128 242° Southwest 373 429 28,400 -2,040 Descending Kansas City Center
12:04PM 39.8450 -93.3342 243° Southwest 376 433 26,500 -1,860 Descending Kansas City Center
12:05PM 39.7997 -93.4500 243° Southwest 367 422 24,600 -1,860 Descending Kansas City Center
12:06PM 39.7547 -93.5622 242° Southwest 359 413 22,700 -1,920 Descending Kansas City Center
12:07PM 39.7125 -93.6686 243° Southwest 339 390 20,800 -1,860 Descending Kansas City Center
12:09PM 39.6697 -93.7756 243° Southwest 324 373 18,900 -1,920 Descending Kansas City Center
12:10PM 39.6253 -93.8858 242° Southwest 308 354 16,900 -1,860 Descending Kansas City Center
12:11PM 39.5811 -93.9733 237° Southwest 303 349 15,100 -1,920 Descending Kansas City Center
12:12PM 39.5286 -94.0783 237° Southwest 310 357 13,000 -1,560 Descending Kansas City Center
12:13PM 39.4836 -94.1661 236° Southwest 307 353 12,000 -540 Descending Kansas City Center
12:14PM 39.4414 -94.2517 237° Southwest 296 341 12,000  Level Kansas City Center
12:15PM 39.3903 -94.3503 236° Southwest 296 341 12,000  Level Kansas City Center
12:16PM 39.3478 -94.4342 237° Southwest 291 335 12,000 -540 Level Kansas City Center
12:17PM 39.3033 -94.5225 237° Southwest 262 302 11,000 -960 Descending Kansas City Center
12:18PM 39.2719 -94.5844 237° Southwest 218 251 10,100 -960 Descending Kansas City Center
12:19PM 39.2094 -94.6144 200° South 221 254 9,000 -1,080 Descending Kansas City Center
12:20PM 39.1500 -94.6286 190° South 226 260 7,900 -1,500 Descending Kansas City Center
12:21PM 39.0981 -94.6611 206° Southwest 233 268 6,000 -1,920 Descending Kansas City Center
12:22PM 39.1167 -94.7833 281° West 193 222 3,100 -1,500 Descending Kansas City TRACON
12:23PM 39.1383 -94.7758 15° North 186 214 3,000 -120 Descending Kansas City Center
12:24PM 39.1936 -94.7583 14° North 183 211 3,000  Level Kansas City Center